createdAt,value
2018-12-04T05:00:30.078Z,8.93
2018-12-04T05:01:30.029Z,8.88
2018-12-04T05:02:30.010Z,8.82
2018-12-04T05:03:30.000Z,8.73
2018-12-04T05:04:30.017Z,8.73
2018-12-04T05:05:29.978Z,8.63
2018-12-04T05:06:29.967Z,8.60
2018-12-04T05:07:29.957Z,8.52
2018-12-04T05:08:29.944Z,8.47
2018-12-04T05:09:29.943Z,8.22
2018-12-04T05:10:29.925Z,8.21
2018-12-04T05:11:29.915Z,8.18
2018-12-04T05:12:29.904Z,8.17
2018-12-04T05:13:29.888Z,8.18
2018-12-04T05:14:29.887Z,8.12
2018-12-04T05:15:29.871Z,8.09
2018-12-04T05:16:29.858Z,8.04
2018-12-04T05:17:29.845Z,7.84
2018-12-04T05:18:29.834Z,7.81
2018-12-04T05:19:29.834Z,7.84
2018-12-04T05:20:29.816Z,7.81
2018-12-04T05:21:29.800Z,7.69
2018-12-04T05:22:29.793Z,7.63
2018-12-04T05:23:29.777Z,7.47
2018-12-04T05:24:29.781Z,7.32
2018-12-04T05:25:29.756Z,7.33
2018-12-04T05:26:29.750Z,7.26
2018-12-04T05:27:29.732Z,7.19
2018-12-04T05:28:29.721Z,7.23
2018-12-04T05:29:29.737Z,7.26
2018-12-04T05:30:29.699Z,7.24
2018-12-04T05:31:29.689Z,7.19
2018-12-04T05:32:29.678Z,7.14
2018-12-04T05:33:29.668Z,7.14
2018-12-04T05:34:29.665Z,7.24
2018-12-04T05:35:29.642Z,7.16
2018-12-04T05:36:29.635Z,7.15
2018-12-04T05:37:29.619Z,7.09
2018-12-04T05:38:29.627Z,6.97
2018-12-04T05:39:29.610Z,6.99
2018-12-04T05:40:29.587Z,7.01
2018-12-04T05:41:29.575Z,6.97
2018-12-04T05:42:29.564Z,6.97
2018-12-04T05:43:29.551Z,7.00
2018-12-04T05:44:29.556Z,6.96
2018-12-04T05:45:29.529Z,6.93
2018-12-04T05:46:29.523Z,6.99
2018-12-04T05:47:29.515Z,7.07
2018-12-04T05:48:29.499Z,7.08
2018-12-04T05:49:29.516Z,7.08
2018-12-04T05:50:29.490Z,7.01
2018-12-04T05:51:29.461Z,7.12
2018-12-04T05:52:29.450Z,7.14
2018-12-04T05:53:29.439Z,7.07
2018-12-04T05:54:29.443Z,7.09
2018-12-04T05:55:29.424Z,7.11
2018-12-04T05:56:29.408Z,7.18
2018-12-04T05:57:29.399Z,7.07
2018-12-04T05:58:29.385Z,7.05
2018-12-04T05:59:29.411Z,7.09
2018-12-04T06:00:29.355Z,6.94
2018-12-04T06:01:29.353Z,7.15
2018-12-04T06:02:29.360Z,7.08
2018-12-04T06:03:29.333Z,7.01
2018-12-04T06:04:29.323Z,7.04
2018-12-04T06:05:29.332Z,7.07
2018-12-04T06:06:29.297Z,7.12
2018-12-04T06:07:29.289Z,7.08
2018-12-04T06:08:29.274Z,7.11
2018-12-04T06:09:29.324Z,7.05
2018-12-04T06:10:29.270Z,6.96
2018-12-04T06:11:29.244Z,7.14
2018-12-04T06:12:29.235Z,7.00
2018-12-04T06:13:29.225Z,6.99
2018-12-04T06:14:29.210Z,7.05
2018-12-04T06:15:29.209Z,7.00
2018-12-04T06:16:29.189Z,7.01
2018-12-04T06:17:29.176Z,7.07
2018-12-04T06:18:29.163Z,6.99
2018-12-04T06:19:29.152Z,6.99
2018-12-04T06:20:29.159Z,7.08
2018-12-04T06:21:29.132Z,7.00
2018-12-04T06:22:29.119Z,6.97
2018-12-04T06:23:29.107Z,6.99
2018-12-04T06:24:29.095Z,6.96
2018-12-04T06:25:29.105Z,7.04
2018-12-04T06:26:29.091Z,7.00
2018-12-04T06:27:29.067Z,7.00
2018-12-04T06:28:29.054Z,7.08
2018-12-04T06:29:29.049Z,7.07
2018-12-04T06:30:29.047Z,7.01
2018-12-04T06:31:29.020Z,6.97
2018-12-04T06:32:29.002Z,6.99
2018-12-04T06:33:28.998Z,6.99
2018-12-04T06:34:28.997Z,6.99
2018-12-04T06:35:28.991Z,6.96
2018-12-04T06:36:28.967Z,6.97
2018-12-04T06:37:28.953Z,6.94
2018-12-04T06:38:28.946Z,6.82
2018-12-04T06:39:28.930Z,6.94
2018-12-04T06:40:28.931Z,6.86
2018-12-04T06:41:28.909Z,6.90
2018-12-04T06:42:28.899Z,6.83
2018-12-04T06:43:28.885Z,6.75
2018-12-04T06:44:28.878Z,6.68
2018-12-04T06:45:28.878Z,6.73
2018-12-04T06:46:28.856Z,6.68
2018-12-04T06:47:28.846Z,6.69
2018-12-04T06:48:28.832Z,6.81
2018-12-04T06:49:28.823Z,6.90
2018-12-04T06:50:28.826Z,6.81
2018-12-04T06:51:28.799Z,6.83
2018-12-04T06:52:28.791Z,6.82
2018-12-04T06:53:28.777Z,6.81
2018-12-04T06:54:28.770Z,6.81
2018-12-04T06:55:28.798Z,6.86
2018-12-04T06:56:28.742Z,6.83
2018-12-04T06:57:28.737Z,6.86
2018-12-04T06:58:28.722Z,6.87
2018-12-04T06:59:28.711Z,6.82
2018-12-04T07:00:28.713Z,6.87
2018-12-04T07:01:28.690Z,6.79
2018-12-04T07:02:28.685Z,6.87
2018-12-04T07:03:28.668Z,6.81
2018-12-04T07:04:28.658Z,6.79
2018-12-04T07:05:28.657Z,6.79
2018-12-04T07:06:28.633Z,6.73
2018-12-04T07:07:28.624Z,6.68
2018-12-04T07:08:28.611Z,6.73
2018-12-04T07:09:28.602Z,6.65
2018-12-04T07:10:28.601Z,6.75
2018-12-04T07:11:28.580Z,6.63
2018-12-04T07:12:28.563Z,6.76
2018-12-04T07:13:28.555Z,6.71
2018-12-04T07:14:28.545Z,6.73
2018-12-04T07:15:28.554Z,6.79
2018-12-04T07:16:28.522Z,6.76
2018-12-04T07:17:28.513Z,6.65
2018-12-04T07:18:28.498Z,6.65
2018-12-04T07:19:28.487Z,6.72
2018-12-04T07:20:28.490Z,6.75
2018-12-04T07:21:28.466Z,6.79
2018-12-04T07:22:28.458Z,6.65
2018-12-04T07:23:28.452Z,6.71
2018-12-04T07:24:28.436Z,6.68
2018-12-04T07:25:28.439Z,6.63
2018-12-04T07:26:28.413Z,6.63
2018-12-04T07:27:28.401Z,6.57
2018-12-04T07:28:28.389Z,6.65
2018-12-04T07:29:28.378Z,6.57
2018-12-04T07:30:28.386Z,6.61
2018-12-04T07:31:28.357Z,6.60
2018-12-04T07:32:28.344Z,6.57
2018-12-04T07:33:28.334Z,6.57
2018-12-04T07:34:28.327Z,6.57
2018-12-04T07:35:28.326Z,6.60
2018-12-04T07:36:28.293Z,6.55
2018-12-04T07:37:28.292Z,6.57
2018-12-04T07:38:28.283Z,6.55
2018-12-04T07:39:28.287Z,6.58
2018-12-04T07:40:28.272Z,6.61
2018-12-04T07:41:28.243Z,6.75
2018-12-04T07:42:28.231Z,6.73
2018-12-04T07:43:28.220Z,6.63
2018-12-04T07:44:28.212Z,6.61
2018-12-04T07:45:28.215Z,6.58
2018-12-04T07:46:28.196Z,6.58
2018-12-04T07:47:28.183Z,6.46
2018-12-04T07:48:28.169Z,6.57
2018-12-04T07:49:28.153Z,6.46
2018-12-04T07:50:28.167Z,6.50
2018-12-04T07:51:28.134Z,6.55
2018-12-04T07:52:28.116Z,6.57
2018-12-04T07:53:28.113Z,6.48
2018-12-04T07:54:28.104Z,6.46
2018-12-04T07:55:28.098Z,6.46
2018-12-04T07:56:28.083Z,6.39
2018-12-04T07:57:28.066Z,6.28
2018-12-04T07:58:28.056Z,6.32
2018-12-04T07:59:28.049Z,6.30
2018-12-04T08:00:28.050Z,6.24
2018-12-04T08:01:28.025Z,6.21
2018-12-04T08:02:28.015Z,6.25
2018-12-04T08:03:28.003Z,6.32
2018-12-04T08:04:27.995Z,6.33
2018-12-04T08:05:28.004Z,6.35
2018-12-04T08:06:27.969Z,6.40
2018-12-04T08:07:27.957Z,6.33
2018-12-04T08:08:27.950Z,6.32
2018-12-04T08:09:27.935Z,6.25
2018-12-04T08:10:27.915Z,6.25
2018-12-04T08:11:27.924Z,6.33
2018-12-04T08:12:27.905Z,6.36
2018-12-04T08:13:27.889Z,6.43
2018-12-04T08:14:27.881Z,6.51
2018-12-04T08:15:27.868Z,6.53
2018-12-04T08:16:27.929Z,6.58
2018-12-04T08:17:27.844Z,6.63
2018-12-04T08:18:27.838Z,6.60
2018-12-04T08:19:29.793Z,6.75
2018-12-04T08:20:27.813Z,6.68
2018-12-04T08:21:27.815Z,6.69
2018-12-04T08:22:27.790Z,6.73
2018-12-04T08:23:27.794Z,6.73
2018-12-04T08:24:27.771Z,6.65
2018-12-04T08:25:27.762Z,6.63
2018-12-04T08:26:27.762Z,6.73
2018-12-04T08:27:27.728Z,6.68
2018-12-04T08:28:27.734Z,6.68
2018-12-04T08:29:27.713Z,6.75
2018-12-04T08:30:27.703Z,6.82
2018-12-04T08:31:27.700Z,6.68
2018-12-04T08:32:27.684Z,6.68
2018-12-04T08:33:27.667Z,6.73
2018-12-04T08:34:27.657Z,6.73
2018-12-04T08:35:27.633Z,6.72
2018-12-04T08:36:27.639Z,6.68
2018-12-04T08:37:27.623Z,6.72
2018-12-04T08:38:27.619Z,6.76
2018-12-04T08:39:27.592Z,6.82
2018-12-04T08:40:27.589Z,6.68
2018-12-04T08:41:27.603Z,6.82
2018-12-04T08:42:27.555Z,6.75
2018-12-04T08:43:27.562Z,6.91
2018-12-04T08:44:27.549Z,6.78
2018-12-04T08:45:27.529Z,6.82
2018-12-04T08:46:29.546Z,6.75
2018-12-04T08:47:27.502Z,6.87
2018-12-04T08:48:27.504Z,6.93
2018-12-04T08:49:27.480Z,6.87
2018-12-04T08:50:27.480Z,6.93
2018-12-04T08:51:27.489Z,6.97
2018-12-04T08:52:27.452Z,6.89
2018-12-04T08:53:27.451Z,6.97
2018-12-04T08:54:27.435Z,6.96
2018-12-04T08:55:27.424Z,7.11
2018-12-04T08:56:27.428Z,7.12
2018-12-04T08:57:27.404Z,7.05
2018-12-04T08:58:27.395Z,7.00
2018-12-04T08:59:27.382Z,7.01
2018-12-04T09:00:27.369Z,7.05
2018-12-04T09:01:27.369Z,7.09
2018-12-04T09:02:27.353Z,7.04
2018-12-04T09:03:27.337Z,7.15
2018-12-04T09:04:27.337Z,7.05
2018-12-04T09:05:27.314Z,6.99
2018-12-04T09:06:27.317Z,7.01
2018-12-04T09:07:29.263Z,7.00
2018-12-04T09:08:27.281Z,6.86
2018-12-04T09:09:27.278Z,6.96
2018-12-04T09:10:27.264Z,6.86
2018-12-04T09:11:27.251Z,6.79
2018-12-04T09:12:27.229Z,6.79
2018-12-04T09:13:27.224Z,6.91
2018-12-04T09:14:29.218Z,6.79
2018-12-04T09:15:27.194Z,6.82
2018-12-04T09:16:27.200Z,6.83
2018-12-04T09:17:27.182Z,6.76
2018-12-04T09:18:27.183Z,6.83
2018-12-04T09:19:27.183Z,6.83
2018-12-04T09:20:27.201Z,6.76
2018-12-04T09:21:27.151Z,6.71
2018-12-04T09:22:27.179Z,6.61
2018-12-04T09:23:27.131Z,6.54
2018-12-04T09:24:30.663Z,6.55
2018-12-04T09:25:27.093Z,6.54
2018-12-04T09:26:27.142Z,6.55
2018-12-04T09:27:27.101Z,6.60
2018-12-04T09:28:27.108Z,6.40
2018-12-04T09:29:27.053Z,6.38
2018-12-04T09:30:27.037Z,6.46
2018-12-04T09:31:27.042Z,6.42
2018-12-04T09:32:27.015Z,6.33
2018-12-04T09:33:27.004Z,6.28
2018-12-04T09:34:29.785Z,6.30
2018-12-04T09:35:26.981Z,6.39
2018-12-04T09:36:26.995Z,6.38
2018-12-04T09:37:26.967Z,6.39
2018-12-04T09:38:26.944Z,6.30
2018-12-04T09:39:26.932Z,6.38
2018-12-04T09:40:26.930Z,6.35
2018-12-04T09:41:26.931Z,6.36
2018-12-04T09:42:26.903Z,6.30
2018-12-04T09:43:26.891Z,6.33
2018-12-04T09:44:26.881Z,6.30
2018-12-04T09:45:26.860Z,6.32
2018-12-04T09:46:26.872Z,6.33
2018-12-04T09:47:26.855Z,6.25
2018-12-04T09:48:26.834Z,6.32
2018-12-04T09:49:26.824Z,6.33
2018-12-04T09:50:26.818Z,6.40
2018-12-04T09:51:26.816Z,6.33
2018-12-04T09:52:26.795Z,6.46
2018-12-04T09:53:26.785Z,6.48
2018-12-04T09:54:26.762Z,6.60
2018-12-04T09:55:26.758Z,6.57
2018-12-04T09:56:26.760Z,6.58
2018-12-04T09:57:26.736Z,6.64
2018-12-04T09:58:26.725Z,6.57
2018-12-04T09:59:26.719Z,6.68
2018-12-04T10:00:26.715Z,6.73
2018-12-04T10:01:26.703Z,6.69
2018-12-04T10:02:26.686Z,6.69
2018-12-04T10:03:26.669Z,6.82
2018-12-04T10:04:26.660Z,6.79
2018-12-04T10:05:28.756Z,6.76
2018-12-04T10:06:26.646Z,6.83
2018-12-04T10:07:26.625Z,6.91
2018-12-04T10:08:26.615Z,6.86
2018-12-04T10:09:26.604Z,6.83
2018-12-04T10:10:28.660Z,6.89
2018-12-04T10:11:26.601Z,6.87
2018-12-04T10:12:26.568Z,6.90
2018-12-04T10:13:26.556Z,6.86
2018-12-04T10:14:26.544Z,6.94
2018-12-04T10:15:26.543Z,6.94
2018-12-04T10:16:26.519Z,6.87
2018-12-04T10:17:26.527Z,6.79
2018-12-04T10:18:26.539Z,6.89
2018-12-04T10:19:27.650Z,6.79
2018-12-04T10:20:26.484Z,6.90
2018-12-04T10:21:26.475Z,6.90
2018-12-04T10:22:26.475Z,6.78
2018-12-04T10:23:26.447Z,6.72
2018-12-04T10:24:26.435Z,6.73
2018-12-04T10:25:26.438Z,6.65
2018-12-04T10:26:26.412Z,6.58
2018-12-04T10:27:26.413Z,6.61
2018-12-04T10:28:26.390Z,6.55
2018-12-04T10:29:26.390Z,6.57
2018-12-04T10:30:26.408Z,6.55
2018-12-04T10:31:26.359Z,6.50
2018-12-04T10:32:26.359Z,6.61
2018-12-04T10:33:26.336Z,6.63
2018-12-04T10:34:26.322Z,6.57
2018-12-04T10:35:26.315Z,6.60
2018-12-04T10:36:26.299Z,6.55
2018-12-04T10:37:26.302Z,6.54
2018-12-04T10:38:26.282Z,6.54
2018-12-04T10:39:26.275Z,6.43
2018-12-04T10:40:26.263Z,6.39
2018-12-04T10:41:26.237Z,6.45
2018-12-04T10:42:26.249Z,6.33
2018-12-04T10:43:26.218Z,6.48
2018-12-04T10:44:26.213Z,6.43
2018-12-04T10:45:26.203Z,6.53
2018-12-04T10:46:26.228Z,6.54
2018-12-04T10:47:26.191Z,6.58
2018-12-04T10:48:28.143Z,6.60
2018-12-04T10:49:26.170Z,6.73
2018-12-04T10:50:28.262Z,6.72
2018-12-04T10:51:26.137Z,6.79
2018-12-04T10:52:28.175Z,6.86
2018-12-04T10:53:28.127Z,6.97
2018-12-04T10:54:26.160Z,6.94
2018-12-04T10:55:26.270Z,6.99
2018-12-04T10:56:26.161Z,7.14
2018-12-04T10:57:26.075Z,7.23
2018-12-04T10:58:28.066Z,7.23
2018-12-04T10:59:26.046Z,7.23
2018-12-04T11:00:26.043Z,7.36
2018-12-04T11:01:26.029Z,7.34
2018-12-04T11:02:26.064Z,7.27
2018-12-04T11:03:28.151Z,7.27
2018-12-04T11:04:27.973Z,7.27
2018-12-04T11:05:27.951Z,7.24
2018-12-04T11:06:25.970Z,7.19
2018-12-04T11:07:25.975Z,7.08
2018-12-04T11:08:25.946Z,7.12
2018-12-04T11:09:25.970Z,7.15
2018-12-04T11:10:25.921Z,7.16
2018-12-04T11:11:25.913Z,7.21
2018-12-04T11:12:25.948Z,7.27
2018-12-04T11:13:25.887Z,7.14
2018-12-04T11:14:25.880Z,7.09
2018-12-04T11:15:25.868Z,7.21
2018-12-04T11:16:25.852Z,7.27
2018-12-04T11:17:25.863Z,7.44
2018-12-04T11:18:25.835Z,7.45
2018-12-04T11:19:25.839Z,7.54
2018-12-04T11:20:25.812Z,7.44
2018-12-04T11:21:25.804Z,7.45
2018-12-04T11:22:25.793Z,7.50
2018-12-04T11:23:25.770Z,7.52
2018-12-04T11:24:25.779Z,7.63
2018-12-04T11:25:25.759Z,7.67
2018-12-04T11:26:25.756Z,7.71
2018-12-04T11:27:25.751Z,7.79
2018-12-04T11:28:25.728Z,7.94
2018-12-04T11:29:25.715Z,7.79
2018-12-04T11:30:25.696Z,7.74
2018-12-04T11:31:25.692Z,7.66
2018-12-04T11:32:25.698Z,7.55
2018-12-04T11:33:25.674Z,7.58
2018-12-04T11:34:25.673Z,7.62
2018-12-04T11:35:25.647Z,7.44
2018-12-04T11:36:25.635Z,7.50
2018-12-04T11:37:25.628Z,7.47
2018-12-04T11:38:25.613Z,7.37
2018-12-04T11:39:25.595Z,7.29
2018-12-04T11:40:25.591Z,7.19
2018-12-04T11:41:25.583Z,7.18
2018-12-04T11:42:25.584Z,7.04
2018-12-04T11:43:25.557Z,6.90
2018-12-04T11:44:25.557Z,6.72
2018-12-04T11:45:25.534Z,6.75
2018-12-04T11:46:25.528Z,6.61
2018-12-04T11:47:25.511Z,6.50
2018-12-04T11:48:25.500Z,6.33
2018-12-04T11:49:25.490Z,6.35
2018-12-04T11:50:25.478Z,6.06
2018-12-04T11:51:25.474Z,6.03
2018-12-04T11:52:25.483Z,5.90
2018-12-04T11:53:25.449Z,5.92
2018-12-04T11:54:25.437Z,5.84
2018-12-04T11:55:25.425Z,5.87
2018-12-04T11:56:25.414Z,5.77
2018-12-04T11:57:25.428Z,5.77
2018-12-04T11:58:25.393Z,5.69
2018-12-04T11:59:25.382Z,5.65
2018-12-04T12:00:25.381Z,5.70
2018-12-04T12:01:25.359Z,5.74
2018-12-04T12:02:25.359Z,5.77
2018-12-04T12:03:25.338Z,5.75
2018-12-04T12:04:25.324Z,5.69
2018-12-04T12:05:25.313Z,5.75
2018-12-04T12:06:25.302Z,5.74
2018-12-04T12:07:25.305Z,5.77
2018-12-04T12:08:25.280Z,5.66
2018-12-04T12:09:25.278Z,5.65
2018-12-04T12:10:25.257Z,5.66
2018-12-04T12:11:25.237Z,5.69
2018-12-04T12:12:25.258Z,5.63
2018-12-04T12:13:25.223Z,5.62
2018-12-04T12:14:25.211Z,5.52
2018-12-04T12:15:25.196Z,5.60
2018-12-04T12:16:25.188Z,5.60
2018-12-04T12:17:25.207Z,5.65
2018-12-04T12:18:25.172Z,5.66
2018-12-04T12:19:25.155Z,5.70
2018-12-04T12:20:25.140Z,5.81
2018-12-04T12:21:25.148Z,5.81
2018-12-04T12:22:25.126Z,5.85
2018-12-04T12:23:25.120Z,5.84
2018-12-04T12:24:25.095Z,5.88
2018-12-04T12:25:25.091Z,5.84
2018-12-04T12:26:25.072Z,5.81
2018-12-04T12:27:25.073Z,5.83
2018-12-04T12:28:25.070Z,5.85
2018-12-04T12:29:25.058Z,5.84
2018-12-04T12:30:25.031Z,5.84
2018-12-04T12:31:25.024Z,5.90
2018-12-04T12:32:25.021Z,5.95
2018-12-04T12:33:25.018Z,5.96
2018-12-04T12:34:24.990Z,5.93
2018-12-04T12:35:24.979Z,5.84
2018-12-04T12:36:24.969Z,5.81
2018-12-04T12:37:24.946Z,5.87
2018-12-04T12:38:24.963Z,5.69
2018-12-04T12:39:24.937Z,5.56
2018-12-04T12:40:24.940Z,5.49
2018-12-04T12:41:24.909Z,5.48
2018-12-04T12:42:24.900Z,5.51
2018-12-04T12:43:24.939Z,5.66
2018-12-04T12:44:24.883Z,5.58
2018-12-04T12:45:24.872Z,5.66
2018-12-04T12:46:24.860Z,5.67
2018-12-04T12:47:24.849Z,5.65
2018-12-04T12:48:24.849Z,5.66
2018-12-04T12:49:24.829Z,5.67
2018-12-04T12:50:24.815Z,5.80
2018-12-04T12:51:24.808Z,5.75
2018-12-04T12:52:24.783Z,5.81
2018-12-04T12:53:24.788Z,5.73
2018-12-04T12:54:24.772Z,5.73
2018-12-04T12:55:24.759Z,5.67
2018-12-04T12:56:24.754Z,5.60
2018-12-04T12:57:24.739Z,5.52
2018-12-04T12:58:24.741Z,5.59
2018-12-04T12:59:24.714Z,5.55
2018-12-04T13:00:24.703Z,5.47
2018-12-04T13:01:24.694Z,5.52
2018-12-04T13:02:24.671Z,5.49
2018-12-04T13:03:24.681Z,5.45
2018-12-04T13:04:24.660Z,5.41
2018-12-04T13:05:24.645Z,5.37
2018-12-04T13:06:24.637Z,5.41
2018-12-04T13:07:24.626Z,5.27
2018-12-04T13:08:24.627Z,5.33
2018-12-04T13:09:24.589Z,5.26
2018-12-04T13:10:24.581Z,5.33
2018-12-04T13:11:24.587Z,5.37
2018-12-04T13:12:24.569Z,5.47
2018-12-04T13:13:24.569Z,5.62
2018-12-04T13:14:24.554Z,5.65
2018-12-04T13:15:24.536Z,5.63
2018-12-04T13:16:24.533Z,5.67
2018-12-04T13:17:24.517Z,5.77
2018-12-04T13:18:24.514Z,5.77
2018-12-04T13:19:24.493Z,5.70
2018-12-04T13:20:24.481Z,5.84
2018-12-04T13:21:24.468Z,5.78
2018-12-04T13:22:24.468Z,5.81
2018-12-04T13:23:24.458Z,5.73
2018-12-04T13:24:24.451Z,5.74
2018-12-04T13:25:24.425Z,5.69
2018-12-04T13:26:24.417Z,5.62
2018-12-04T13:27:24.414Z,5.73
2018-12-04T13:28:24.421Z,5.85
2018-12-04T13:29:24.383Z,5.73
2018-12-04T13:30:24.376Z,5.75
2018-12-04T13:31:24.901Z,5.75
2018-12-04T13:32:24.367Z,5.75
2018-12-04T13:33:24.354Z,5.65
2018-12-04T13:34:24.355Z,5.63
2018-12-04T13:35:24.317Z,5.52
2018-12-04T13:36:24.303Z,5.52
2018-12-04T13:37:24.280Z,5.45
2018-12-04T13:38:24.306Z,5.38
2018-12-04T13:39:24.269Z,5.30
2018-12-04T13:40:24.272Z,5.33
2018-12-04T13:41:24.253Z,5.24
2018-12-04T13:42:24.239Z,5.27
2018-12-04T13:43:24.236Z,5.32
2018-12-04T13:44:24.234Z,5.29
2018-12-04T13:45:24.197Z,5.11
2018-12-04T13:46:24.199Z,5.24
2018-12-04T13:47:24.183Z,5.19
2018-12-04T13:48:24.186Z,5.24
2018-12-04T13:49:24.170Z,5.11
2018-12-04T13:50:24.151Z,5.11
2018-12-04T13:51:24.140Z,5.01
2018-12-04T13:52:24.140Z,5.02
2018-12-04T13:53:24.136Z,4.96
2018-12-04T13:54:24.092Z,4.90
2018-12-04T13:55:24.094Z,4.88
2018-12-04T13:56:24.086Z,4.75
2018-12-04T13:57:24.058Z,4.68
2018-12-04T13:58:24.074Z,4.68
2018-12-04T13:59:24.059Z,4.68
2018-12-04T14:00:24.058Z,4.62
2018-12-04T14:01:24.034Z,4.61
2018-12-04T14:02:24.018Z,4.42
2018-12-04T14:03:24.020Z,4.46
2018-12-04T14:04:23.987Z,4.50
2018-12-04T14:05:23.975Z,4.49
2018-12-04T14:06:23.974Z,4.43
2018-12-04T14:07:23.966Z,4.47
2018-12-04T14:08:23.956Z,4.36
2018-12-04T14:09:26.156Z,4.38
2018-12-04T14:10:23.938Z,4.39
2018-12-04T14:11:23.912Z,4.32
2018-12-04T14:12:23.906Z,4.31
2018-12-04T14:13:23.937Z,4.31
2018-12-04T14:14:23.878Z,4.32
2018-12-04T14:15:23.881Z,4.31
2018-12-04T14:16:23.875Z,4.32
2018-12-04T14:17:23.889Z,4.20
2018-12-04T14:18:23.851Z,4.20
2018-12-04T14:19:23.834Z,4.18
2018-12-04T14:20:23.815Z,4.17
2018-12-04T14:21:23.822Z,4.20
2018-12-04T14:22:23.792Z,4.16
2018-12-04T14:23:23.802Z,4.14
2018-12-04T14:24:23.778Z,4.17
2018-12-04T14:25:23.759Z,4.18
2018-12-04T14:26:23.747Z,4.21
2018-12-04T14:27:23.769Z,4.20
2018-12-04T14:28:23.730Z,4.10
2018-12-04T14:29:23.731Z,4.13
2018-12-04T14:30:23.729Z,4.06
2018-12-04T14:31:23.696Z,4.07
2018-12-04T14:32:23.674Z,4.06
2018-12-04T14:33:23.677Z,4.10
2018-12-04T14:34:23.676Z,4.10
2018-12-04T14:35:23.654Z,4.02
2018-12-04T14:36:23.659Z,4.06
2018-12-04T14:37:23.631Z,4.06
2018-12-04T14:38:24.584Z,4.07
2018-12-04T14:39:23.650Z,4.08
2018-12-04T14:40:23.612Z,3.95
2018-12-04T14:41:23.587Z,4.08
2018-12-04T14:42:23.599Z,4.04
2018-12-04T14:43:23.559Z,3.95
2018-12-04T14:44:25.433Z,3.95
2018-12-04T14:45:23.540Z,3.82
2018-12-04T14:46:23.525Z,3.92
2018-12-04T14:47:23.519Z,3.80
2018-12-04T14:48:23.519Z,3.84
2018-12-04T14:49:23.528Z,3.84
2018-12-04T14:50:23.480Z,3.78
2018-12-04T14:51:23.469Z,3.78
2018-12-04T14:52:23.490Z,3.68
2018-12-04T14:53:23.465Z,3.71
2018-12-04T14:54:23.450Z,3.64
2018-12-04T14:55:23.424Z,3.70
2018-12-04T14:56:23.414Z,3.59
2018-12-04T14:57:23.398Z,3.49
2018-12-04T14:58:23.411Z,3.45
2018-12-04T14:59:23.396Z,3.37
2018-12-04T15:00:23.392Z,3.26
2018-12-04T15:01:23.354Z,3.30
2018-12-04T15:02:23.346Z,3.34
2018-12-04T15:03:23.363Z,3.19
2018-12-04T15:04:23.330Z,3.20
2018-12-04T15:05:23.319Z,3.19
2018-12-04T15:06:23.320Z,3.20
2018-12-04T15:07:23.288Z,3.16
2018-12-04T15:08:23.274Z,3.12
2018-12-04T15:09:23.300Z,3.17
2018-12-04T15:10:23.286Z,3.15
2018-12-04T15:11:23.239Z,3.10
2018-12-04T15:12:23.233Z,3.13
2018-12-04T15:13:23.221Z,3.12
2018-12-04T15:14:23.232Z,3.07
2018-12-04T15:15:24.770Z,2.99
2018-12-04T15:16:23.207Z,2.98
2018-12-04T15:17:23.193Z,2.97
2018-12-04T15:18:23.176Z,2.98
2018-12-04T15:19:23.194Z,2.97
2018-12-04T15:20:23.151Z,2.90
2018-12-04T15:21:23.242Z,2.98
2018-12-04T15:22:23.120Z,2.94
2018-12-04T15:23:23.153Z,2.98
2018-12-04T15:24:23.109Z,3.01
2018-12-04T15:25:23.117Z,2.97
2018-12-04T15:26:23.094Z,2.99
2018-12-04T15:27:23.088Z,2.94
2018-12-04T15:28:23.053Z,2.98
2018-12-04T15:29:23.077Z,2.99
2018-12-04T15:30:23.029Z,2.95
2018-12-04T15:31:23.028Z,2.92
2018-12-04T15:32:23.006Z,3.01
2018-12-04T15:33:22.999Z,3.01
2018-12-04T15:34:23.015Z,2.95
2018-12-04T15:35:22.972Z,2.90
2018-12-04T15:36:23.003Z,2.94
2018-12-04T15:37:22.980Z,3.02
2018-12-04T15:38:22.972Z,3.02
2018-12-04T15:39:22.944Z,3.04
2018-12-04T15:40:22.927Z,2.99
2018-12-04T15:41:22.905Z,2.98
2018-12-04T15:42:23.012Z,2.97
2018-12-04T15:43:22.987Z,2.97
2018-12-04T15:44:22.918Z,2.83
2018-12-04T15:45:22.856Z,2.92
2018-12-04T15:46:22.869Z,2.97
2018-12-04T15:47:22.854Z,3.01
2018-12-04T15:48:22.827Z,2.97
2018-12-04T15:49:22.861Z,2.97
2018-12-04T15:50:22.803Z,3.10
2018-12-04T15:51:22.793Z,3.10
2018-12-04T15:52:22.783Z,3.13
2018-12-04T15:53:22.810Z,3.07
2018-12-04T15:54:22.766Z,3.10
2018-12-04T15:55:22.760Z,3.16
2018-12-04T15:56:22.743Z,3.07
2018-12-04T15:57:24.723Z,3.10
2018-12-04T15:58:22.730Z,3.07
2018-12-04T15:59:22.717Z,3.08
2018-12-04T16:00:22.696Z,3.13
2018-12-04T16:01:22.685Z,3.15
2018-12-04T16:02:22.673Z,3.02
2018-12-04T16:03:22.652Z,2.97
2018-12-04T16:04:22.670Z,2.87
2018-12-04T16:05:22.643Z,2.81
2018-12-04T16:06:22.628Z,2.77
2018-12-04T16:07:22.617Z,2.77
2018-12-04T16:08:22.600Z,2.77
2018-12-04T16:09:22.617Z,2.71
2018-12-04T16:10:22.583Z,2.59
2018-12-04T16:11:22.572Z,2.62
2018-12-04T16:12:22.559Z,2.58
2018-12-04T16:13:22.548Z,2.61
2018-12-04T16:14:22.554Z,2.66
2018-12-04T16:15:22.521Z,2.55
2018-12-04T16:16:22.518Z,2.58
2018-12-04T16:17:22.500Z,2.55
2018-12-04T16:18:22.487Z,2.51
2018-12-04T16:19:22.493Z,2.56
2018-12-04T16:20:22.473Z,2.40
2018-12-04T16:21:22.458Z,2.40
2018-12-04T16:22:22.443Z,2.36
2018-12-04T16:23:22.431Z,2.33
2018-12-04T16:24:22.436Z,2.37
2018-12-04T16:25:22.409Z,2.33
2018-12-04T16:26:22.414Z,2.30
2018-12-04T16:27:22.388Z,2.23
2018-12-04T16:28:22.375Z,2.26
2018-12-04T16:29:22.406Z,2.32
2018-12-04T16:30:22.371Z,2.20
2018-12-04T16:31:22.333Z,2.25
2018-12-04T16:32:22.329Z,2.26
2018-12-04T16:33:22.310Z,2.18
2018-12-04T16:34:22.306Z,2.27
2018-12-04T16:35:22.315Z,2.15
2018-12-04T16:36:22.286Z,2.11
2018-12-04T16:37:22.274Z,2.00
2018-12-04T16:38:22.263Z,2.00
2018-12-04T16:39:22.251Z,1.95
2018-12-04T16:40:22.243Z,1.90
2018-12-04T16:41:22.230Z,1.93
2018-12-04T16:42:22.215Z,1.95
2018-12-04T16:43:22.208Z,1.88
2018-12-04T16:44:22.196Z,1.86
2018-12-04T16:45:22.196Z,1.89
2018-12-04T16:46:22.172Z,1.81
2018-12-04T16:47:22.161Z,1.82
2018-12-04T16:48:22.149Z,1.83
2018-12-04T16:49:22.146Z,1.77
2018-12-04T16:50:22.138Z,1.71
2018-12-04T16:51:22.118Z,1.68
2018-12-04T16:52:22.104Z,1.81
2018-12-04T16:53:22.093Z,1.83
2018-12-04T16:54:22.086Z,1.70
2018-12-04T16:55:22.105Z,1.74
2018-12-04T16:56:22.059Z,1.75
2018-12-04T16:57:22.040Z,1.74
2018-12-04T16:58:22.032Z,1.70
2018-12-04T16:59:24.032Z,1.56
2018-12-04T17:00:22.035Z,1.68
2018-12-04T17:01:21.997Z,1.65
2018-12-04T17:02:21.979Z,1.70
2018-12-04T17:03:21.981Z,1.67
2018-12-04T17:04:22.052Z,1.65
2018-12-04T17:05:21.970Z,1.67
2018-12-04T17:06:21.945Z,1.61
2018-12-04T17:07:21.931Z,1.63
2018-12-04T17:08:21.922Z,1.72
2018-12-04T17:09:21.907Z,1.54
2018-12-04T17:10:22.545Z,1.57
2018-12-04T17:11:21.886Z,1.50
2018-12-04T17:12:21.879Z,1.50
2018-12-04T17:13:21.873Z,1.43
2018-12-04T17:14:21.854Z,1.38
2018-12-04T17:15:21.852Z,1.43
2018-12-04T17:16:21.815Z,1.49
2018-12-04T17:17:21.819Z,1.44
2018-12-04T17:18:23.389Z,1.43
2018-12-04T17:19:22.138Z,1.47
2018-12-04T17:20:21.801Z,1.44
2018-12-04T17:21:21.773Z,1.47
2018-12-04T17:22:21.766Z,1.38
2018-12-04T17:23:21.750Z,1.31
2018-12-04T17:24:21.742Z,1.35
2018-12-04T17:25:21.741Z,1.38
2018-12-04T17:26:21.717Z,1.38
2018-12-04T17:27:21.705Z,1.28
2018-12-04T17:28:21.694Z,1.20
2018-12-04T17:29:21.682Z,1.13
2018-12-04T17:30:21.676Z,1.13
2018-12-04T17:31:21.665Z,1.17
2018-12-04T17:32:21.649Z,1.24
2018-12-04T17:33:21.636Z,1.16
2018-12-04T17:34:21.625Z,1.17
2018-12-04T17:35:21.626Z,1.13
2018-12-04T17:36:21.602Z,1.16
2018-12-04T17:37:21.588Z,1.21
2018-12-04T17:38:21.568Z,1.07
2018-12-04T17:39:21.570Z,1.16
2018-12-04T17:40:21.570Z,1.18
2018-12-04T17:41:21.547Z,1.18
2018-12-04T17:42:21.536Z,1.08
2018-12-04T17:43:21.524Z,1.10
2018-12-04T17:44:21.513Z,1.06
2018-12-04T17:45:21.513Z,1.10
2018-12-04T17:46:21.482Z,1.18
2018-12-04T17:47:21.479Z,1.16
2018-12-04T17:48:21.468Z,1.13
2018-12-04T17:49:21.458Z,1.17
2018-12-04T17:50:21.472Z,1.18
2018-12-04T17:51:21.434Z,1.18
2018-12-04T17:52:21.430Z,1.17
2018-12-04T17:53:21.412Z,1.16
2018-12-04T17:54:21.401Z,1.08
2018-12-04T17:55:21.399Z,1.13
2018-12-04T17:56:21.376Z,1.04
2018-12-04T17:57:21.367Z,1.14
2018-12-04T17:58:21.354Z,1.11
2018-12-04T17:59:21.343Z,1.06
2018-12-04T18:00:21.347Z,1.16
2018-12-04T18:01:21.320Z,1.10
2018-12-04T18:02:21.313Z,1.06
2018-12-04T18:03:21.341Z,1.08
2018-12-04T18:04:21.288Z,1.04
2018-12-04T18:05:21.295Z,1.13
2018-12-04T18:06:21.265Z,1.16
2018-12-04T18:07:21.253Z,1.11
2018-12-04T18:08:21.225Z,1.17
2018-12-04T18:09:21.231Z,1.16
2018-12-04T18:10:21.232Z,1.10
2018-12-04T18:11:21.203Z,1.08
2018-12-04T18:12:21.202Z,1.07
2018-12-04T18:13:21.181Z,1.14
2018-12-04T18:14:21.170Z,1.06
2018-12-04T18:15:21.173Z,1.10
2018-12-04T18:16:21.145Z,0.99
2018-12-04T18:17:23.168Z,1.02
2018-12-04T18:18:21.126Z,1.14